Time;durP1;ratioP1;P1;durP2;ratioP2;P2;SDS_P1;SDS_P2;PMS_P1;PMS_P2;Temp;Humidity;BMP_temperature;BMP_pressure;BME280_temperature;BME280_humidity;BME280_pressure;Samples;Min_cycle;Max_cycle;Signal;HPM_P1;HPM_P2
2023/03/21 00:01:35;;;;;;;4.65;3.10;;;12.90;96.70;;;;;;5098218;28;20044;-72
2023/03/21 00:04:03;;;;;;;4.13;3.17;;;12.90;96.70;;;;;;5096137;28;20476;-72
2023/03/21 00:06:31;;;;;;;3.72;3.13;;;12.90;96.70;;;;;;5088297;28;20040;-72
2023/03/21 00:09:00;;;;;;;5.10;3.40;;;12.80;96.70;;;;;;5097493;28;20575;-72
2023/03/21 00:11:28;;;;;;;4.30;3.33;;;12.80;96.70;;;;;;5092219;28;20044;-71
2023/03/21 00:14:01;;;;;;;5.50;3.08;;;12.80;96.70;;;;;;5085234;28;20071;-72
2023/03/21 00:16:31;;;;;;;4.07;3.35;;;12.90;96.70;;;;;;5082951;28;20060;-71
2023/03/21 00:19:06;;;;;;;5.50;3.13;;;12.80;96.70;;;;;;5083963;28;20066;-72
2023/03/21 00:21:37;;;;;;;4.43;3.05;;;12.90;96.70;;;;;;5081938;28;20044;-72
2023/03/21 00:24:23;;;;;;;4.63;3.40;;;12.90;96.70;;;;;;5104284;27;20056;-71
2023/03/21 00:26:51;;;;;;;5.10;3.47;;;12.90;96.70;;;;;;5091797;28;20043;-71
2023/03/21 00:29:19;;;;;;;4.57;3.35;;;12.80;96.70;;;;;;5083213;28;20051;-72
2023/03/21 00:31:47;;;;;;;4.82;3.67;;;12.80;96.70;;;;;;5082490;28;20044;-72
2023/03/21 00:34:14;;;;;;;4.82;3.50;;;12.70;96.70;;;;;;5070819;28;20048;-72
2023/03/21 00:36:49;;;;;;;5.80;4.00;;;12.70;96.70;;;;;;5087488;28;20044;-72
2023/03/21 00:39:17;;;;;;;6.18;3.83;;;12.50;96.70;;;;;;5083783;28;20036;-71
2023/03/21 00:41:46;;;;;;;4.75;3.75;;;12.50;96.70;;;;;;5089076;28;20059;-71
2023/03/21 00:44:14;;;;;;;4.60;4.05;;;12.20;96.70;;;;;;5079431;28;20052;-72
2023/03/21 00:46:42;;;;;;;5.50;3.95;;;12.00;96.70;;;;;;5082360;28;20477;-72
2023/03/21 00:49:32;;;;;;;6.85;4.95;;;12.00;96.70;;;;;;5081440;28;20143;-71
2023/03/21 00:52:03;;;;;;;5.72;4.28;;;12.20;96.70;;;;;;5085261;28;20501;-71
2023/03/21 00:54:43;;;;;;;6.07;4.20;;;12.20;96.70;;;;;;5084824;28;20047;-72
2023/03/21 00:57:12;;;;;;;5.65;3.45;;;12.20;96.70;;;;;;5089539;28;20044;-71
2023/03/21 00:59:40;;;;;;;8.13;5.68;;;12.20;96.70;;;;;;5084900;28;20452;-71
2023/03/21 01:02:13;;;;;;;7.85;5.20;;;12.10;96.70;;;;;;5083328;28;20155;-71
2023/03/21 01:04:41;;;;;;;6.57;5.30;;;11.80;96.70;;;;;;5093166;28;20058;-71
2023/03/21 01:07:09;;;;;;;6.63;5.07;;;11.80;96.70;;;;;;5090419;28;20138;-71
2023/03/21 01:09:37;;;;;;;6.43;4.68;;;11.90;96.70;;;;;;5097899;28;20051;-71
2023/03/21 01:12:05;;;;;;;7.55;5.78;;;11.80;96.70;;;;;;5091370;28;20048;-71
2023/03/21 01:14:35;;;;;;;9.00;6.30;;;11.90;96.70;;;;;;5090890;28;20040;-71
2023/03/21 01:17:03;;;;;;;7.13;5.78;;;12.00;96.70;;;;;;5095282;28;20051;-72
2023/03/21 01:19:31;;;;;;;8.95;5.72;;;12.10;96.70;;;;;;5085553;28;20055;-71
2023/03/21 01:22:17;;;;;;;8.38;5.85;;;12.10;96.70;;;;;;5084937;28;20073;-72
2023/03/21 01:24:44;;;;;;;7.65;5.80;;;12.00;96.70;;;;;;5098630;28;20436;-72
2023/03/21 01:27:23;;;;;;;6.50;5.20;;;12.00;96.70;;;;;;5083208;28;20140;-71
2023/03/21 01:29:52;;;;;;;6.28;5.43;;;12.00;96.70;;;;;;5092628;28;20043;-71
2023/03/21 01:32:20;;;;;;;6.10;4.88;;;12.00;96.70;;;;;;5082037;28;20131;-72
2023/03/21 01:34:48;;;;;;;5.90;5.10;;;11.80;96.70;;;;;;5083282;28;20044;-72
2023/03/21 01:37:17;;;;;;;6.55;5.55;;;12.00;96.70;;;;;;5099745;28;20051;-72
2023/03/21 01:39:48;;;;;;;5.70;4.97;;;12.00;96.70;;;;;;5058229;28;20056;-72
2023/03/21 01:42:16;;;;;;;5.75;4.95;;;12.00;96.70;;;;;;5082196;28;20460;-72
2023/03/21 01:44:56;;;;;;;7.53;5.70;;;11.90;96.70;;;;;;5082810;28;20046;-72
2023/03/21 01:47:26;;;;;;;7.07;5.72;;;11.90;96.70;;;;;;5080433;28;20452;-71
2023/03/21 01:50:10;;;;;;;6.65;5.75;;;11.90;96.70;;;;;;5082097;28;20052;-72
2023/03/21 01:52:45;;;;;;;5.35;4.85;;;11.80;96.70;;;;;;5081411;28;20036;-72
2023/03/21 01:55:17;;;;;;;6.78;5.43;;;11.80;96.70;;;;;;5089081;28;20552;-73
2023/03/21 01:57:59;;;;;;;6.25;5.50;;;11.80;96.70;;;;;;5089726;28;20135;-72
2023/03/21 02:00:55;;;;;;;6.68;5.05;;;11.90;96.70;;;;;;5082327;28;20190;-71
2023/03/21 02:03:36;;;;;;;5.93;5.10;;;11.90;96.70;;;;;;5088863;28;20109;-72
2023/03/21 02:06:43;;;;;;;;;;;11.80;96.70;;;;;;5082267;28;20044;-72
2023/03/21 02:09:27;;;;;;;8.15;5.28;;;11.80;96.70;;;;;;5078550;28;19928;-72
2023/03/21 02:11:56;;;;;;;9.35;5.72;;;11.90;96.70;;;;;;5078784;28;20048;-71
2023/03/21 02:14:31;;;;;;;6.40;5.75;;;11.80;96.70;;;;;;5086284;28;20044;-72
2023/03/21 02:17:11;;;;;;;6.88;5.18;;;11.80;96.70;;;;;;5096662;28;20052;-72
2023/03/21 02:20:20;;;;;;;5.80;5.20;;;11.70;96.70;;;;;;5082906;28;20131;-72
2023/03/21 02:23:15;;;;;;;5.60;4.53;;;11.60;96.70;;;;;;5065057;28;20056;-72
2023/03/21 02:26:14;;;;;;;5.43;3.90;;;11.60;96.70;;;;;;5060411;28;20044;-72
2023/03/21 02:28:47;;;;;;;5.78;3.92;;;11.50;96.70;;;;;;5080710;28;20044;-72
2023/03/21 02:31:40;;;;;;;24.20;5.25;;;11.60;96.70;;;;;;5084840;28;20620;-72
2023/03/21 02:34:45;;;;;;;37.10;6.35;;;11.60;96.70;;;;;;5109076;28;20451;-71
2023/03/21 02:37:21;;;;;;;10.73;4.03;;;11.80;96.70;;;;;;5081737;28;20055;-72
2023/03/21 02:40:10;;;;;;;10.32;5.50;;;11.80;96.70;;;;;;5077937;28;20055;-71
2023/03/21 02:42:59;;;;;;;9.30;6.03;;;11.80;96.70;;;;;;5100325;28;20079;-71
2023/03/21 02:45:44;;;;;;;10.45;6.82;;;11.80;96.70;;;;;;5082727;28;20055;-71
2023/03/21 02:48:18;;;;;;;7.53;5.13;;;11.50;96.70;;;;;;5086492;28;20128;-72
2023/03/21 02:50:59;;;;;;;8.57;5.25;;;11.40;96.70;;;;;;5112732;28;20043;-71
2023/03/21 02:53:33;;;;;;;7.95;5.28;;;11.40;96.70;;;;;;5080789;28;20055;-72
2023/03/21 02:56:09;;;;;;;7.10;5.07;;;11.50;96.70;;;;;;5092282;28;20426;-72
2023/03/21 02:58:44;;;;;;;5.68;4.15;;;11.50;96.70;;;;;;5081096;28;20465;-72
2023/03/21 03:01:12;;;;;;;5.35;3.72;;;11.50;96.70;;;;;;5081802;28;20043;-71
2023/03/21 03:03:47;;;;;;;5.28;4.20;;;11.50;96.70;;;;;;5084715;28;20075;-71
2023/03/21 03:06:19;;;;;;;5.90;4.38;;;11.40;96.70;;;;;;5084534;28;20468;-72
2023/03/21 03:09:06;;;;;;;6.35;4.35;;;11.40;96.70;;;;;;5080163;28;20048;-72
2023/03/21 03:11:37;;;;;;;4.85;4.30;;;11.40;96.70;;;;;;5072517;28;20052;-71
2023/03/21 03:14:21;;;;;;;4.55;3.90;;;11.40;96.70;;;;;;5080911;28;20154;-71
2023/03/21 03:17:19;;;;;;;6.45;3.90;;;11.50;96.70;;;;;;5080602;28;20514;-71
2023/03/21 03:20:05;;;;;;;7.80;4.95;;;11.40;96.70;;;;;;5084803;28;20180;-71
2023/03/21 03:22:53;;;;;;;6.82;5.82;;;11.20;96.70;;;;;;5084654;28;21231;-71
2023/03/21 03:25:28;;;;;;;5.80;4.45;;;11.20;96.70;;;;;;5094671;28;20051;-71
2023/03/21 03:28:12;;;;;;;6.50;4.20;;;11.30;96.70;;;;;;5083559;28;20058;-71
2023/03/21 03:30:41;;;;;;;6.18;4.88;;;11.30;96.70;;;;;;5075192;28;20074;-71
2023/03/21 03:33:29;;;;;;;5.60;4.35;;;11.30;96.70;;;;;;5084581;28;20040;-71
2023/03/21 03:35:59;;;;;;;5.53;4.05;;;11.10;96.70;;;;;;5085958;28;20044;-71
2023/03/21 03:38:36;;;;;;;5.95;4.20;;;11.30;96.70;;;;;;5088282;27;20044;-71
2023/03/21 03:41:11;;;;;;;7.82;4.00;;;11.30;96.70;;;;;;5082808;28;20305;-71
2023/03/21 03:43:49;;;;;;;4.75;3.75;;;11.30;96.70;;;;;;5096248;28;20044;-71
2023/03/21 03:46:23;;;;;;;4.47;3.85;;;11.30;96.70;;;;;;5089368;28;20051;-72
2023/03/21 03:48:55;;;;;;;4.43;3.45;;;11.30;96.70;;;;;;5085305;28;20342;-71
2023/03/21 03:51:26;;;;;;;4.18;3.45;;;11.30;96.70;;;;;;5088601;28;20052;-71
2023/03/21 03:54:20;;;;;;;4.40;3.42;;;11.30;96.70;;;;;;5082757;28;20072;-71
2023/03/21 03:56:52;;;;;;;5.40;3.58;;;11.30;96.70;;;;;;5077621;28;20051;-71
2023/03/21 03:59:21;;;;;;;5.20;3.85;;;11.30;96.70;;;;;;5093206;28;20408;-72
2023/03/21 04:02:28;;;;;;;4.32;3.25;;;11.10;96.70;;;;;;5040492;28;20053;-72
2023/03/21 04:04:57;;;;;;;4.18;3.28;;;11.10;96.70;;;;;;5041945;28;21322;-72
2023/03/21 04:07:25;;;;;;;4.05;2.85;;;11.10;96.70;;;;;;5063737;28;20058;-72
2023/03/21 04:09:56;;;;;;;4.65;3.78;;;11.10;96.70;;;;;;5093132;28;20598;-73
2023/03/21 04:12:26;;;;;;;5.90;3.42;;;11.10;96.70;;;;;;5095609;28;20105;-72
2023/03/21 04:15:12;;;;;;;4.43;3.20;;;11.10;96.70;;;;;;5094438;28;20063;-72
2023/03/21 04:17:46;;;;;;;5.88;3.35;;;11.10;96.70;;;;;;5097306;28;20052;-72
2023/03/21 04:20:15;;;;;;;4.95;2.88;;;11.00;96.70;;;;;;5089580;28;20048;-72
2023/03/21 04:23:01;;;;;;;3.53;3.17;;;10.90;96.70;;;;;;5083958;28;20584;-71
2023/03/21 04:25:32;;;;;;;3.60;3.00;;;10.90;96.70;;;;;;5066489;28;20141;-72
2023/03/21 04:28:05;;;;;;;6.13;3.33;;;11.00;96.70;;;;;;5083399;28;20444;-72
2023/03/21 04:30:48;;;;;;;6.78;3.95;;;10.90;96.70;;;;;;5094617;28;20092;-71
2023/03/21 04:33:38;;;;;;;3.60;3.15;;;10.90;96.70;;;;;;5088584;28;20071;-72
2023/03/21 04:36:23;;;;;;;3.75;2.90;;;10.90;96.70;;;;;;5089394;28;20040;-72
2023/03/21 04:38:55;;;;;;;3.22;2.88;;;10.90;96.70;;;;;;5066955;28;20063;-72
2023/03/21 04:41:24;;;;;;;3.28;2.60;;;10.90;96.70;;;;;;5091579;28;20051;-72
2023/03/21 04:43:54;;;;;;;3.92;2.80;;;10.90;96.70;;;;;;5086561;28;20861;-72
2023/03/21 04:46:23;;;;;;;4.03;2.70;;;10.80;96.70;;;;;;5084842;28;20139;-72
2023/03/21 04:48:51;;;;;;;3.25;2.92;;;10.70;96.70;;;;;;5083651;28;20550;-72
2023/03/21 04:51:19;;;;;;;4.25;3.10;;;10.80;96.70;;;;;;5095326;28;20401;-72
2023/03/21 04:53:48;;;;;;;7.70;3.70;;;10.70;96.70;;;;;;5072531;28;20048;-72
2023/03/21 04:56:16;;;;;;;3.53;3.10;;;10.60;96.70;;;;;;5087879;28;20114;-72
2023/03/21 04:58:44;;;;;;;4.45;2.92;;;10.60;96.70;;;;;;5082701;28;20032;-72
2023/03/21 05:01:18;;;;;;;3.70;3.15;;;10.60;96.70;;;;;;5089228;28;20383;-72
2023/03/21 05:03:47;;;;;;;4.00;2.88;;;10.70;96.70;;;;;;5075660;28;20141;-72
2023/03/21 05:06:16;;;;;;;4.60;3.60;;;10.70;96.70;;;;;;5085057;28;20052;-72
2023/03/21 05:08:44;;;;;;;3.72;3.20;;;10.70;96.70;;;;;;5082318;28;20635;-72
2023/03/21 05:11:12;;;;;;;4.80;4.00;;;10.80;96.70;;;;;;5081526;28;20849;-72
2023/03/21 05:13:40;;;;;;;4.70;3.80;;;10.80;96.70;;;;;;5083767;28;20040;-71
2023/03/21 05:16:09;;;;;;;4.90;4.18;;;10.70;96.70;;;;;;5082882;28;20043;-71
2023/03/21 05:18:39;;;;;;;4.88;3.47;;;10.60;96.70;;;;;;5093177;28;20592;-71
2023/03/21 05:21:16;;;;;;;4.32;3.80;;;10.50;96.70;;;;;;5098378;28;20124;-73
2023/03/21 05:23:54;;;;;;;4.10;3.67;;;10.50;96.70;;;;;;5068840;28;20060;-72
2023/03/21 05:26:23;;;;;;;5.55;3.90;;;10.50;96.70;;;;;;5081978;28;20135;-71
2023/03/21 05:28:58;;;;;;;5.30;4.10;;;10.50;96.70;;;;;;5081972;28;20051;-71
2023/03/21 05:31:26;;;;;;;4.07;3.60;;;10.50;96.70;;;;;;5080786;28;20301;-71
2023/03/21 05:34:06;;;;;;;6.25;3.95;;;10.50;96.70;;;;;;5082151;28;20047;-72
2023/03/21 05:36:35;;;;;;;6.90;4.25;;;10.50;96.70;;;;;;5087095;28;20098;-72
2023/03/21 05:39:06;;;;;;;7.32;4.75;;;10.40;96.70;;;;;;5083484;28;21007;-71
2023/03/21 05:41:38;;;;;;;8.38;4.93;;;10.50;96.70;;;;;;5085244;28;20043;-72
2023/03/21 05:44:06;;;;;;;11.10;4.47;;;10.50;96.70;;;;;;5087730;28;20477;-72
2023/03/21 05:46:36;;;;;;;7.43;4.47;;;10.50;96.70;;;;;;5074952;28;20075;-71
2023/03/21 05:49:06;;;;;;;6.35;4.60;;;10.60;96.70;;;;;;5091701;28;20081;-72
2023/03/21 05:51:35;;;;;;;7.63;4.75;;;10.60;96.70;;;;;;5083065;28;20067;-71
2023/03/21 05:54:03;;;;;;;6.68;4.10;;;10.60;96.70;;;;;;5081061;28;20044;-71
2023/03/21 05:56:32;;;;;;;7.07;4.60;;;10.70;96.70;;;;;;5078498;28;20063;-72
2023/03/21 05:59:05;;;;;;;7.53;4.00;;;10.50;96.70;;;;;;5064447;28;20063;-71
2023/03/21 06:01:39;;;;;;;7.10;4.60;;;10.60;96.70;;;;;;5074973;28;20055;-71
2023/03/21 06:04:14;;;;;;;5.10;4.13;;;10.50;96.70;;;;;;5088358;28;20159;-72
2023/03/21 06:06:43;;;;;;;5.93;4.70;;;10.60;96.70;;;;;;5064189;28;20093;-72
2023/03/21 06:09:10;;;;;;;4.70;3.80;;;10.60;96.70;;;;;;5090653;28;20081;-72
2023/03/21 06:11:45;;;;;;;6.63;4.50;;;10.60;96.70;;;;;;5088364;28;20048;-72
2023/03/21 06:14:42;;;;;;;6.60;5.13;;;10.50;96.70;;;;;;5068469;28;20056;-72
2023/03/21 06:17:26;;;;;;;9.02;4.68;;;10.50;96.70;;;;;;5083389;28;20052;-72
2023/03/21 06:20:03;;;;;;;6.70;4.90;;;10.60;96.70;;;;;;5090122;28;20503;-71
2023/03/21 06:22:36;;;;;;;9.68;4.88;;;10.60;96.70;;;;;;5079817;28;20526;-73
2023/03/21 06:25:06;;;;;;;7.30;5.40;;;10.60;96.70;;;;;;5080795;28;20151;-72
2023/03/21 06:27:35;;;;;;;8.93;5.53;;;10.70;96.70;;;;;;5097690;28;20138;-72
2023/03/21 06:30:07;;;;;;;9.15;5.90;;;10.70;96.70;;;;;;5064703;28;20137;-72
2023/03/21 06:32:42;;;;;;;9.10;5.88;;;10.70;96.70;;;;;;5090490;28;20105;-72
2023/03/21 06:35:14;;;;;;;8.48;5.75;;;10.80;96.70;;;;;;5090108;28;20509;-71
2023/03/21 06:37:44;;;;;;;8.07;6.13;;;10.90;96.70;;;;;;5090149;28;20048;-72
2023/03/21 06:40:12;;;;;;;9.30;6.68;;;11.00;96.70;;;;;;5062453;28;20079;-72
2023/03/21 06:42:40;;;;;;;9.60;6.25;;;11.00;96.70;;;;;;5085568;28;20063;-71
2023/03/21 06:45:10;;;;;;;8.45;6.07;;;11.00;96.70;;;;;;5091586;28;20039;-72
2023/03/21 06:47:38;;;;;;;10.30;6.95;;;11.00;96.70;;;;;;5066585;28;20139;-72
2023/03/21 06:50:15;;;;;;;16.92;8.18;;;11.00;96.70;;;;;;5080503;28;20039;-71
2023/03/21 06:52:44;;;;;;;12.90;8.20;;;11.10;96.70;;;;;;5073237;28;20708;-71
2023/03/21 06:55:15;;;;;;;10.57;7.85;;;11.00;96.70;;;;;;5076463;28;20040;-71
2023/03/21 06:57:43;;;;;;;17.83;9.45;;;11.10;96.70;;;;;;5089525;28;20524;-72
2023/03/21 07:00:12;;;;;;;10.85;7.55;;;11.10;96.70;;;;;;5085396;28;20059;-72
2023/03/21 07:02:45;;;;;;;9.90;7.10;;;11.10;96.70;;;;;;5084525;28;20058;-72
2023/03/21 07:05:18;;;;;;;9.52;7.13;;;11.10;96.70;;;;;;5088701;28;20071;-72
2023/03/21 07:07:47;;;;;;;8.35;7.32;;;11.10;96.70;;;;;;5090585;28;20044;-72
2023/03/21 07:10:15;;;;;;;10.15;7.35;;;11.30;96.70;;;;;;5085083;28;20044;-72
2023/03/21 07:12:52;;;;;;;7.82;7.03;;;11.30;96.70;;;;;;5087680;28;20048;-72
2023/03/21 07:15:23;;;;;;;8.95;6.97;;;11.40;96.70;;;;;;5086063;28;21154;-73
2023/03/21 07:17:51;;;;;;;9.68;7.68;;;11.40;96.70;;;;;;5084926;28;20048;-72
2023/03/21 07:20:21;;;;;;;8.63;7.22;;;11.40;96.70;;;;;;5085091;28;20044;-72
2023/03/21 07:22:50;;;;;;;8.23;6.95;;;11.50;96.70;;;;;;5067741;28;20204;-72
2023/03/21 07:25:19;;;;;;;10.70;7.63;;;11.60;96.70;;;;;;5102469;28;20044;-71
2023/03/21 07:27:47;;;;;;;10.93;7.32;;;11.60;96.70;;;;;;5071211;28;20595;-72
2023/03/21 07:30:17;;;;;;;10.15;7.30;;;11.60;96.70;;;;;;5090812;28;20090;-72
2023/03/21 07:32:46;;;;;;;10.23;6.53;;;11.70;96.70;;;;;;5067589;28;20051;-72
2023/03/21 07:35:16;;;;;;;8.73;6.63;;;11.80;96.70;;;;;;5086530;28;20120;-72
2023/03/21 07:37:45;;;;;;;8.75;7.35;;;11.80;96.70;;;;;;5084773;28;20040;-71
2023/03/21 07:40:16;;;;;;;10.90;7.15;;;11.90;96.70;;;;;;5077828;28;20408;-72
2023/03/21 07:42:44;;;;;;;7.70;6.68;;;11.90;96.70;;;;;;5077394;28;20043;-73
2023/03/21 07:45:19;;;;;;;9.20;7.15;;;12.00;96.70;;;;;;5084032;28;20440;-72
2023/03/21 07:47:48;;;;;;;9.30;6.30;;;12.00;96.70;;;;;;5083773;28;20635;-72
2023/03/21 07:50:16;;;;;;;8.43;7.18;;;12.00;96.70;;;;;;5082761;28;20044;-72
2023/03/21 07:52:46;;;;;;;10.07;6.95;;;12.00;96.70;;;;;;5059177;28;20470;-72
2023/03/21 07:55:16;;;;;;;10.18;6.90;;;12.10;96.70;;;;;;5081987;28;20032;-72
2023/03/21 07:57:44;;;;;;;10.20;7.22;;;12.20;96.70;;;;;;5083472;28;20048;-71
2023/03/21 08:00:21;;;;;;;10.77;7.50;;;12.20;96.70;;;;;;5083448;28;20598;-71
2023/03/21 08:02:53;;;;;;;11.25;7.72;;;12.20;96.70;;;;;;5084536;28;20094;-73
2023/03/21 08:05:26;;;;;;;9.00;7.40;;;12.20;96.70;;;;;;5083735;28;20052;-72
2023/03/21 08:07:56;;;;;;;9.63;7.47;;;12.30;96.70;;;;;;5084564;28;20196;-72
2023/03/21 08:10:24;;;;;;;9.55;7.65;;;12.40;96.70;;;;;;5083652;28;20039;-72
2023/03/21 08:12:52;;;;;;;10.05;8.63;;;12.50;96.70;;;;;;5085368;28;20044;-72
2023/03/21 08:15:20;;;;;;;11.60;9.23;;;12.50;96.70;;;;;;5084117;28;20040;-71
2023/03/21 08:17:48;;;;;;;11.45;9.88;;;12.60;96.70;;;;;;5081960;28;20067;-73
2023/03/21 08:20:20;;;;;;;11.98;9.57;;;12.60;96.70;;;;;;5084081;28;20693;-72
2023/03/21 08:22:48;;;;;;;14.00;9.52;;;12.60;96.70;;;;;;5084969;28;20044;-72
2023/03/21 08:25:20;;;;;;;12.73;10.18;;;12.70;96.70;;;;;;5083339;28;20573;-72
2023/03/21 08:27:50;;;;;;;12.77;9.27;;;12.80;96.70;;;;;;5092455;28;20043;-73
2023/03/21 08:30:20;;;;;;;12.35;10.60;;;12.80;96.70;;;;;;5085791;28;20620;-72
2023/03/21 08:32:48;;;;;;;13.90;10.93;;;12.90;96.70;;;;;;5100724;28;20587;-72
2023/03/21 08:35:19;;;;;;;14.43;10.25;;;13.00;96.70;;;;;;5102419;28;20131;-73
2023/03/21 08:37:47;;;;;;;14.25;10.95;;;13.10;96.70;;;;;;5084829;28;20525;-72
2023/03/21 08:40:18;;;;;;;15.77;11.02;;;13.20;96.70;;;;;;5082651;28;20044;-72
2023/03/21 08:42:46;;;;;;;14.13;11.40;;;13.20;96.70;;;;;;5083524;28;20040;-72
2023/03/21 08:45:15;;;;;;;14.32;11.07;;;13.40;96.70;;;;;;5078136;28;20048;-72
2023/03/21 08:47:42;;;;;;;19.08;11.80;;;13.50;96.70;;;;;;5083023;28;20055;-72
2023/03/21 08:50:14;;;;;;;18.02;12.45;;;13.50;96.70;;;;;;5076009;28;20044;-72
2023/03/21 08:52:42;;;;;;;18.73;12.55;;;13.60;96.70;;;;;;5082670;28;20040;-72
2023/03/21 08:55:11;;;;;;;17.17;13.05;;;13.70;96.70;;;;;;5084521;28;20084;-72
2023/03/21 08:57:41;;;;;;;15.68;12.63;;;13.80;96.70;;;;;;5066347;28;20052;-72
2023/03/21 09:00:12;;;;;;;16.52;12.50;;;13.90;96.70;;;;;;5090262;28;20058;-72
2023/03/21 09:02:40;;;;;;;14.77;11.45;;;14.00;96.70;;;;;;5085137;28;20145;-72
2023/03/21 09:05:10;;;;;;;18.30;11.63;;;14.00;96.70;;;;;;5086240;28;20032;-72
2023/03/21 09:07:39;;;;;;;13.77;10.40;;;14.20;96.70;;;;;;5101346;28;20078;-72
2023/03/21 09:10:10;;;;;;;13.80;11.05;;;14.20;96.70;;;;;;5067972;28;20131;-73
2023/03/21 09:12:51;;;;;;;12.07;9.77;;;14.20;96.70;;;;;;5089329;28;20052;-72
2023/03/21 09:15:20;;;;;;;15.57;9.85;;;14.40;96.70;;;;;;5083855;28;20090;-73
2023/03/21 09:17:51;;;;;;;12.27;9.70;;;14.40;96.70;;;;;;5078969;28;20153;-73
2023/03/21 09:20:29;;;;;;;11.40;8.65;;;14.50;96.70;;;;;;5084547;28;20072;-72
2023/03/21 09:23:00;;;;;;;13.27;9.60;;;14.60;96.70;;;;;;5084141;28;20537;-72
2023/03/21 09:25:29;;;;;;;10.90;9.20;;;14.70;96.70;;;;;;5090824;28;20089;-72
2023/03/21 09:28:03;;;;;;;13.00;9.52;;;14.70;96.70;;;;;;5074675;28;20461;-72
2023/03/21 09:30:33;;;;;;;10.68;7.50;;;14.80;96.70;;;;;;5083458;28;20044;-72
2023/03/21 09:33:05;;;;;;;11.52;8.20;;;14.90;96.70;;;;;;5065400;28;20042;-72
2023/03/21 09:35:33;;;;;;;11.20;8.90;;;15.00;96.70;;;;;;5088049;28;20048;-72
2023/03/21 09:38:02;;;;;;;10.35;8.45;;;15.10;96.70;;;;;;5081257;28;20056;-72
2023/03/21 09:40:49;;;;;;;11.15;7.80;;;15.30;96.70;;;;;;5080279;28;21557;-72
2023/03/21 09:43:34;;;;;;;9.47;8.30;;;15.30;96.70;;;;;;5084470;28;20052;-72
2023/03/21 09:46:09;;;;;;;10.13;8.30;;;15.30;96.70;;;;;;5082006;28;20405;-72
2023/03/21 09:48:56;;;;;;;10.68;7.97;;;15.40;96.70;;;;;;5064837;28;20078;-72
2023/03/21 09:51:27;;;;;;;10.52;8.32;;;15.60;96.70;;;;;;5090192;28;20089;-72
2023/03/21 09:53:59;;;;;;;8.52;7.57;;;15.70;96.70;;;;;;5090032;28;20039;-72
2023/03/21 09:56:27;;;;;;;7.90;6.63;;;15.90;96.70;;;;;;5075858;28;20048;-72
2023/03/21 09:58:59;;;;;;;8.13;6.55;;;16.00;96.70;;;;;;5086181;28;20043;-72
2023/03/21 10:01:31;;;;;;;9.07;6.95;;;16.10;96.70;;;;;;5084619;28;20051;-71
2023/03/21 10:04:02;;;;;;;9.60;7.28;;;16.20;96.70;;;;;;5064865;28;20444;-72
2023/03/21 10:06:31;;;;;;;10.05;7.80;;;16.30;96.70;;;;;;5065070;28;20058;-71
2023/03/21 10:09:05;;;;;;;10.68;7.75;;;16.50;96.70;;;;;;5081269;28;20059;-71
2023/03/21 10:11:40;;;;;;;7.95;7.15;;;16.50;96.70;;;;;;5081445;28;20152;-72
2023/03/21 10:14:15;;;;;;;9.13;7.30;;;16.60;96.70;;;;;;5081901;28;20143;-72
2023/03/21 10:16:46;;;;;;;9.55;7.07;;;16.70;96.70;;;;;;5073762;28;20646;-72
2023/03/21 10:19:17;;;;;;;7.35;6.45;;;16.90;96.70;;;;;;5091556;28;20047;-72
2023/03/21 10:21:48;;;;;;;9.05;6.82;;;16.90;96.70;;;;;;5081744;28;20044;-72
2023/03/21 10:24:33;;;;;;;8.57;6.57;;;17.00;96.70;;;;;;5080850;28;20093;-72
2023/03/21 10:27:03;;;;;;;6.75;6.05;;;17.00;96.70;;;;;;5082722;28;20051;-72
2023/03/21 10:29:40;;;;;;;8.27;6.25;;;17.10;96.70;;;;;;5090296;28;20043;-72
2023/03/21 10:32:12;;;;;;;7.50;6.00;;;17.20;96.70;;;;;;5090623;28;20068;-72
2023/03/21 10:34:44;;;;;;;7.90;5.13;;;17.30;96.70;;;;;;5096339;28;20046;-72
2023/03/21 10:37:13;;;;;;;7.72;5.47;;;17.50;96.70;;;;;;5081162;28;20115;-72
2023/03/21 10:39:44;;;;;;;8.43;5.95;;;17.50;96.70;;;;;;5082303;28;20055;-72
2023/03/21 10:42:18;;;;;;;8.07;5.50;;;17.50;96.70;;;;;;5098417;28;20048;-72
2023/03/21 10:44:50;;;;;;;6.35;4.97;;;17.70;96.70;;;;;;5084473;28;20520;-72
2023/03/21 10:47:24;;;;;;;7.30;4.68;;;17.80;96.70;;;;;;5082676;28;20068;-72
2023/03/21 10:50:00;;;;;;;4.10;3.70;;;18.00;96.70;;;;;;5085010;28;20047;-71
2023/03/21 10:52:44;;;;;;;5.63;3.65;;;18.10;96.70;;;;;;5102792;28;20051;-71
2023/03/21 10:55:27;;;;;;;4.43;3.10;;;18.20;96.70;;;;;;5091269;28;20056;-72
2023/03/21 10:57:59;;;;;;;3.65;3.00;;;18.20;96.70;;;;;;5088348;28;20044;-73
2023/03/21 11:00:34;;;;;;;3.67;2.80;;;18.30;96.70;;;;;;5089743;28;20106;-72
2023/03/21 11:03:03;;;;;;;3.28;2.65;;;18.40;96.70;;;;;;5082037;28;20067;-72
2023/03/21 11:05:36;;;;;;;4.65;2.60;;;18.50;96.70;;;;;;5083479;28;20066;-72
2023/03/21 11:08:09;;;;;;;4.80;3.47;;;18.50;96.70;;;;;;5095228;28;20074;-72
2023/03/21 11:10:50;;;;;;;6.20;4.03;;;18.60;96.70;;;;;;5081149;28;20059;-72
2023/03/21 11:13:25;;;;;;;5.43;4.40;;;18.50;96.70;;;;;;5083081;28;20048;-72
2023/03/21 11:15:57;;;;;;;6.57;4.93;;;18.60;96.70;;;;;;5090980;28;20123;-72
2023/03/21 11:18:30;;;;;;;6.78;4.82;;;18.70;96.70;;;;;;5088288;28;20142;-72
2023/03/21 11:21:01;;;;;;;5.85;4.75;;;18.70;96.70;;;;;;5091714;28;20501;-73
2023/03/21 11:23:33;;;;;;;6.78;4.60;;;18.80;96.70;;;;;;5081587;28;20068;-72
2023/03/21 11:26:07;;;;;;;6.72;5.40;;;19.00;96.70;;;;;;5094133;28;20066;-72
2023/03/21 11:28:38;;;;;;;7.10;5.63;;;19.20;96.70;;;;;;5081327;28;20044;-72
2023/03/21 11:31:23;;;;;;;6.43;5.22;;;19.20;96.70;;;;;;5080176;28;20135;-73
2023/03/21 11:33:55;;;;;;;9.93;6.32;;;19.30;96.70;;;;;;5082335;28;20151;-72
2023/03/21 11:36:33;;;;;;;7.80;5.68;;;19.30;96.70;;;;;;5081145;28;20048;-72
2023/03/21 11:39:13;;;;;;;6.80;5.75;;;19.40;96.70;;;;;;5083252;28;20094;-72
2023/03/21 11:41:46;;;;;;;6.53;5.90;;;19.60;96.70;;;;;;5085278;28;20044;-72
2023/03/21 11:44:31;;;;;;;6.65;5.85;;;19.80;96.70;;;;;;5091091;28;20635;-72
2023/03/21 11:47:01;;;;;;;6.13;5.53;;;19.80;96.70;;;;;;5093052;28;20569;-72
2023/03/21 11:49:30;;;;;;;8.05;5.43;;;20.00;96.70;;;;;;5094474;28;20523;-72
2023/03/21 11:52:37;;;;;;;6.05;5.45;;;20.00;96.70;;;;;;5092983;28;20052;-73
2023/03/21 11:55:17;;;;;;;8.02;6.28;;;20.00;96.70;;;;;;5100211;28;20128;-73
2023/03/21 11:57:57;;;;;;;8.40;6.35;;;20.10;96.70;;;;;;5099107;28;20448;-72
2023/03/21 12:00:44;;;;;;;9.38;6.97;;;20.20;96.70;;;;;;5084174;28;20450;-72
2023/03/21 12:03:57;;;;;;;6.80;6.20;;;20.20;96.70;;;;;;5092802;28;20182;-72
2023/03/21 12:06:33;;;;;;;7.88;7.05;;;20.20;96.70;;;;;;5085017;28;20051;-72
2023/03/21 12:09:26;;;;;;;8.30;7.13;;;20.30;96.70;;;;;;5082919;28;20092;-72
2023/03/21 12:12:14;;;;;;;8.10;6.97;;;20.40;96.70;;;;;;5087243;28;20055;-72
2023/03/21 12:14:54;;;;;;;7.50;6.63;;;20.50;96.70;;;;;;5078476;28;20151;-72
2023/03/21 12:17:36;;;;;;;9.45;7.70;;;20.40;96.70;;;;;;5093866;28;20060;-72
2023/03/21 12:20:25;;;;;;;6.88;5.97;;;20.60;96.70;;;;;;5084173;28;20052;-72
2023/03/21 12:23:11;;;;;;;7.40;6.70;;;20.70;96.70;;;;;;5089491;28;20059;-72
2023/03/21 12:25:45;;;;;;;7.53;6.75;;;20.80;96.70;;;;;;5083522;28;20101;-73
2023/03/21 12:28:27;;;;;;;8.30;6.22;;;21.00;96.70;;;;;;5077027;28;20369;-72
2023/03/21 12:31:07;;;;;;;7.00;6.30;;;21.20;96.70;;;;;;5090061;28;20054;-72
2023/03/21 12:33:59;;;;;;;6.82;6.13;;;21.30;96.70;;;;;;5085195;28;20052;-72
2023/03/21 12:36:47;;;;;;;7.07;6.38;;;21.50;96.70;;;;;;5090987;28;20078;-72
2023/03/21 12:39:26;;;;;;;8.13;6.72;;;21.60;96.70;;;;;;5086376;28;20056;-72
2023/03/21 12:42:08;;;;;;;7.93;6.45;;;21.60;96.70;;;;;;5075582;28;20044;-72
2023/03/21 12:44:40;;;;;;;7.68;6.97;;;21.60;96.70;;;;;;5094000;28;20048;-72
2023/03/21 12:47:12;;;;;;;8.00;6.40;;;21.60;96.70;;;;;;5082930;28;20355;-73
2023/03/21 12:49:45;;;;;;;7.18;6.45;;;21.50;96.70;;;;;;5084367;28;20037;-73
2023/03/21 12:52:20;;;;;;;8.82;6.78;;;21.60;96.70;;;;;;5084770;28;20050;-72
2023/03/21 12:54:53;;;;;;;7.18;6.45;;;21.70;96.70;;;;;;5082731;28;20314;-72
2023/03/21 12:57:25;;;;;;;7.47;6.70;;;21.70;96.70;;;;;;5075641;28;20469;-72
2023/03/21 12:59:59;;;;;;;6.70;5.82;;;21.80;96.70;;;;;;5109026;27;20138;-72
2023/03/21 13:02:31;;;;;;;8.45;5.95;;;21.90;96.70;;;;;;5082602;28;20056;-72
2023/03/21 13:05:06;;;;;;;7.32;6.22;;;22.10;96.70;;;;;;5084583;28;20410;-73
2023/03/21 13:07:40;;;;;;;7.47;5.85;;;22.20;96.70;;;;;;5089115;28;20078;-72
2023/03/21 13:10:14;;;;;;;7.38;6.32;;;22.30;96.70;;;;;;5108526;27;20044;-72
2023/03/21 13:12:55;;;;;;;6.43;5.78;;;22.30;96.70;;;;;;5096435;28;20047;-72
2023/03/21 13:15:38;;;;;;;6.50;5.90;;;22.10;96.70;;;;;;5085460;28;20051;-72
2023/03/21 13:18:16;;;;;;;6.63;6.00;;;22.20;96.70;;;;;;5083650;28;20381;-72
2023/03/21 13:20:48;;;;;;;5.60;4.95;;;22.20;96.70;;;;;;5093259;28;20541;-73
2023/03/21 13:23:20;;;;;;;8.52;5.38;;;22.00;96.70;;;;;;5084100;28;20063;-72